Time;durP1;ratioP1;P1;durP2;ratioP2;P2;SDS_P1;SDS_P2;PMS_P1;PMS_P2;Temp;Humidity;BMP_temperature;BMP_pressure;BME280_temperature;BME280_humidity;BME280_pressure;Samples;Min_cycle;Max_cycle;Signal;HPM_P1;HPM_P2
2023/11/26 00:01:30;;;;;;;7.97;3.08;;;0.20;99.90;;;;;;4742319;30;20052;-50
2023/11/26 00:03:57;;;;;;;5.82;2.80;;;0.20;99.90;;;;;;4743430;30;20044;-53
2023/11/26 00:06:26;;;;;;;7.97;3.30;;;0.40;99.90;;;;;;4746359;30;20048;-48
2023/11/26 00:08:53;;;;;;;5.35;2.80;;;0.40;99.90;;;;;;4747944;30;20048;-52
2023/11/26 00:11:21;;;;;;;6.43;2.80;;;0.40;99.90;;;;;;4746487;30;20151;-46
2023/11/26 00:13:48;;;;;;;4.97;2.90;;;0.40;99.90;;;;;;4747078;30;20486;-48
2023/11/26 00:16:15;;;;;;;6.90;2.63;;;0.50;99.90;;;;;;4748851;30;20056;-51
2023/11/26 00:18:42;;;;;;;5.10;2.90;;;0.50;99.90;;;;;;4742089;30;20058;-48
2023/11/26 00:21:09;;;;;;;5.28;2.55;;;0.60;99.90;;;;;;4743321;30;20064;-51
2023/11/26 00:23:36;;;;;;;5.97;2.60;;;0.60;99.90;;;;;;4746212;30;20056;-49
2023/11/26 00:26:03;;;;;;;6.90;3.30;;;0.50;99.90;;;;;;4727977;30;20511;-46
2023/11/26 00:28:30;;;;;;;6.05;2.60;;;0.50;99.90;;;;;;4742460;30;20067;-49
2023/11/26 00:30:57;;;;;;;5.55;3.22;;;0.50;99.90;;;;;;4741825;30;20545;-49
2023/11/26 00:33:24;;;;;;;7.30;3.30;;;0.50;99.90;;;;;;4746960;30;20131;-54
2023/11/26 00:35:51;;;;;;;9.95;3.80;;;0.40;99.90;;;;;;4745693;30;20485;-51
2023/11/26 00:38:18;;;;;;;6.68;3.13;;;0.40;99.90;;;;;;4742210;30;20051;-51
2023/11/26 00:40:45;;;;;;;7.25;3.13;;;0.40;99.90;;;;;;4715401;30;20475;-49
2023/11/26 00:43:12;;;;;;;7.18;3.38;;;0.30;99.90;;;;;;4726898;30;20077;-52
2023/11/26 00:45:42;;;;;;;5.85;3.20;;;0.30;99.90;;;;;;4745192;30;20079;-49
2023/11/26 00:48:10;;;;;;;7.47;3.42;;;0.30;99.90;;;;;;4739994;24;20567;-48
2023/11/26 00:50:37;;;;;;;10.02;4.03;;;0.20;99.90;;;;;;4710918;30;20412;-47
2023/11/26 00:53:04;;;;;;;10.80;3.95;;;0.10;99.90;;;;;;4695747;30;20164;-45
2023/11/26 00:55:32;;;;;;;7.65;3.67;;;0.10;99.90;;;;;;4711175;30;20147;-46
2023/11/26 00:57:59;;;;;;;7.70;3.92;;;0.10;99.90;;;;;;4710181;30;20137;-48
2023/11/26 01:00:26;;;;;;;7.35;3.47;;;0.10;99.90;;;;;;4710228;30;20068;-46
2023/11/26 01:02:53;;;;;;;8.02;3.55;;;0.00;99.90;;;;;;4695167;30;20534;-47
2023/11/26 01:05:20;;;;;;;8.20;3.50;;;0.00;99.90;;;;;;4695385;30;20128;-49
2023/11/26 01:07:48;;;;;;;6.55;3.58;;;0.00;99.90;;;;;;4711605;30;20053;-45
2023/11/26 01:10:15;;;;;;;8.15;3.53;;;0.00;99.90;;;;;;4710211;30;20064;-50
2023/11/26 01:12:42;;;;;;;6.43;3.63;;;0.00;99.90;;;;;;4711471;30;20192;-43
2023/11/26 01:15:09;;;;;;;7.78;3.88;;;0.00;99.90;;;;;;4712846;30;20140;-47
2023/11/26 01:17:37;;;;;;;8.45;4.10;;;0.00;99.90;;;;;;4711123;30;20065;-47
2023/11/26 01:20:05;;;;;;;8.30;3.95;;;0.10;99.90;;;;;;4695290;30;20606;-46
2023/11/26 01:22:33;;;;;;;9.48;3.85;;;0.10;99.90;;;;;;4711078;30;20049;-43
2023/11/26 01:25:00;;;;;;;10.32;3.83;;;0.20;99.90;;;;;;4711327;30;20045;-45
2023/11/26 01:27:27;;;;;;;10.10;4.18;;;0.20;99.90;;;;;;4711186;30;20045;-46
2023/11/26 01:29:54;;;;;;;7.35;4.30;;;0.20;99.90;;;;;;4694568;30;20083;-46
2023/11/26 01:32:22;;;;;;;11.88;4.00;;;0.30;99.90;;;;;;4696244;30;20052;-46
2023/11/26 01:34:49;;;;;;;6.75;3.88;;;0.30;99.90;;;;;;4711224;30;20061;-42
2023/11/26 01:37:24;;;;;;;7.68;3.60;;;0.40;99.90;;;;;;4696909;30;20482;-44
2023/11/26 01:39:51;;;;;;;9.95;3.38;;;0.40;99.90;;;;;;4712551;30;20126;-45
2023/11/26 01:42:18;;;;;;;8.35;3.60;;;0.50;99.90;;;;;;4712324;30;20448;-48
2023/11/26 01:44:46;;;;;;;8.45;3.67;;;0.60;99.90;;;;;;4711342;30;20053;-47
2023/11/26 01:47:13;;;;;;;7.57;3.13;;;0.60;99.90;;;;;;4714314;30;20075;-47
2023/11/26 01:49:41;;;;;;;11.40;3.58;;;0.70;99.90;;;;;;4696318;30;20084;-50
2023/11/26 01:52:10;;;;;;;7.57;3.63;;;0.70;99.90;;;;;;4714912;30;20052;-49
2023/11/26 01:54:41;;;;;;;9.55;3.13;;;0.70;99.90;;;;;;4696019;30;20053;-45
2023/11/26 01:57:13;;;;;;;6.63;3.40;;;0.80;99.90;;;;;;4711622;30;20536;-49
2023/11/26 01:59:41;;;;;;;7.45;4.65;;;0.80;99.90;;;;;;4698397;30;20049;-50
2023/11/26 02:02:08;;;;;;;6.43;3.28;;;0.80;99.90;;;;;;4713404;30;20053;-47
2023/11/26 02:04:37;;;;;;;8.15;3.47;;;0.80;99.90;;;;;;4698954;30;20049;-50
2023/11/26 02:07:04;;;;;;;9.60;3.55;;;0.80;99.90;;;;;;4698707;30;20423;-47
2023/11/26 02:09:32;;;;;;;6.65;3.58;;;0.80;99.90;;;;;;4717693;30;20058;-45
2023/11/26 02:11:59;;;;;;;8.57;3.42;;;0.90;99.90;;;;;;4716098;30;20068;-43
2023/11/26 02:14:26;;;;;;;11.55;3.97;;;0.90;99.90;;;;;;4719340;30;20061;-44
2023/11/26 02:16:53;;;;;;;7.50;3.58;;;1.00;99.90;;;;;;4717182;30;20057;-44
2023/11/26 02:19:28;;;;;;;9.75;3.92;;;0.90;99.90;;;;;;4717275;30;20068;-43
2023/11/26 02:21:56;;;;;;;9.75;3.83;;;0.90;99.90;;;;;;4714757;30;20069;-45
2023/11/26 02:24:29;;;;;;;8.60;3.58;;;0.90;99.90;;;;;;4714190;30;20649;-44
2023/11/26 02:26:56;;;;;;;10.07;3.55;;;0.90;99.90;;;;;;4714211;30;20148;-46
2023/11/26 02:29:23;;;;;;;5.80;3.28;;;0.90;99.90;;;;;;4713837;30;20206;-49
2023/11/26 02:31:50;;;;;;;10.02;3.42;;;0.90;99.90;;;;;;4697730;30;20064;-45
2023/11/26 02:34:17;;;;;;;10.18;3.95;;;1.00;99.90;;;;;;4714823;30;20409;-46
2023/11/26 02:36:44;;;;;;;8.32;4.03;;;0.90;99.90;;;;;;4712349;30;20136;-43
2023/11/26 02:39:12;;;;;;;12.02;3.85;;;0.90;99.90;;;;;;4713629;30;20049;-48
2023/11/26 02:41:41;;;;;;;7.25;3.22;;;0.90;99.90;;;;;;4713325;30;20150;-48
2023/11/26 02:44:08;;;;;;;9.48;4.40;;;1.00;99.90;;;;;;4713238;30;20084;-47
2023/11/26 02:46:36;;;;;;;11.40;4.57;;;1.00;99.90;;;;;;4713660;30;20053;-49
2023/11/26 02:49:04;;;;;;;10.77;4.00;;;1.00;99.90;;;;;;4697695;30;20057;-47
2023/11/26 02:51:32;;;;;;;7.68;3.40;;;1.00;99.90;;;;;;4713170;30;20146;-50
2023/11/26 02:53:59;;;;;;;7.72;3.97;;;1.00;99.90;;;;;;4712619;30;20407;-44
2023/11/26 02:56:26;;;;;;;8.18;3.35;;;1.00;99.90;;;;;;4713250;30;20122;-56
2023/11/26 02:58:53;;;;;;;7.38;3.83;;;1.00;99.90;;;;;;4713755;30;20578;-49
2023/11/26 03:01:28;;;;;;;8.52;3.58;;;1.10;99.90;;;;;;4697329;30;20045;-43
2023/11/26 03:03:58;;;;;;;6.75;3.33;;;1.10;99.90;;;;;;4712133;30;20156;-46
2023/11/26 03:06:26;;;;;;;6.07;3.30;;;1.10;99.90;;;;;;4698860;30;20084;-44
2023/11/26 03:08:59;;;;;;;12.90;4.00;;;1.00;99.90;;;;;;4699203;30;20069;-44
2023/11/26 03:14:14;;;;;;;8.23;3.53;;;1.00;99.90;;;;;;4716194;30;20530;-45
2023/11/26 03:16:45;;;;;;;6.75;3.40;;;1.00;99.90;;;;;;4711902;30;20072;-49
2023/11/26 03:19:14;;;;;;;7.72;3.70;;;0.90;99.90;;;;;;4712643;30;20130;-49
2023/11/26 03:21:44;;;;;;;7.43;3.85;;;0.90;99.90;;;;;;4711092;30;20515;-48
2023/11/26 03:24:15;;;;;;;6.72;3.65;;;0.90;99.90;;;;;;4712880;30;20066;-44
2023/11/26 03:26:42;;;;;;;9.77;3.55;;;0.90;99.90;;;;;;4712845;30;20051;-41
2023/11/26 03:29:09;;;;;;;8.98;4.40;;;0.80;99.90;;;;;;4712523;30;20562;-47
2023/11/26 03:31:36;;;;;;;7.40;4.13;;;0.70;99.90;;;;;;4712559;30;20053;-45
2023/11/26 03:34:08;;;;;;;8.65;4.00;;;0.60;99.90;;;;;;4712331;30;20065;-45
2023/11/26 03:36:36;;;;;;;9.10;3.70;;;0.50;99.90;;;;;;4712836;30;20049;-45
2023/11/26 03:39:04;;;;;;;7.63;4.22;;;0.40;99.90;;;;;;4713198;30;20591;-48
2023/11/26 03:41:32;;;;;;;9.88;3.83;;;0.40;99.90;;;;;;4709381;30;20060;-52
2023/11/26 03:44:00;;;;;;;7.03;3.88;;;0.30;99.90;;;;;;4709191;30;20088;-45
2023/11/26 03:46:29;;;;;;;6.95;4.07;;;0.30;99.90;;;;;;4711120;30;20131;-44
2023/11/26 03:48:57;;;;;;;8.20;3.72;;;0.20;99.90;;;;;;4712295;30;20055;-48
2023/11/26 03:51:23;;;;;;;8.93;3.70;;;0.20;99.90;;;;;;4695752;30;20065;-48
2023/11/26 03:53:50;;;;;;;9.07;3.72;;;0.10;99.90;;;;;;4713970;30;20065;-48
2023/11/26 03:56:19;;;;;;;6.25;3.58;;;0.00;99.90;;;;;;4710016;30;20045;-49
2023/11/26 03:58:46;;;;;;;8.13;3.60;;;-0.10;99.90;;;;;;4711620;30;20072;-46
2023/11/26 04:01:13;;;;;;;9.55;3.97;;;-0.10;99.90;;;;;;4711639;30;20455;-45
2023/11/26 04:03:40;;;;;;;9.68;3.75;;;-0.10;99.90;;;;;;4712523;30;20423;-45
2023/11/26 04:06:07;;;;;;;7.85;4.32;;;-0.10;99.90;;;;;;4697518;30;20076;-41
2023/11/26 04:08:34;;;;;;;8.52;3.58;;;-0.10;99.90;;;;;;4711471;30;20045;-47
2023/11/26 04:11:03;;;;;;;8.23;4.07;;;-0.10;99.90;;;;;;4707241;30;20092;-45
2023/11/26 04:13:31;;;;;;;10.40;4.13;;;-0.10;99.90;;;;;;4708957;30;20476;-45
2023/11/26 04:15:58;;;;;;;7.38;4.15;;;-0.10;99.90;;;;;;4714594;30;20123;-49
2023/11/26 04:18:27;;;;;;;7.65;3.75;;;-0.20;99.90;;;;;;4712261;30;20467;-43
2023/11/26 04:20:55;;;;;;;10.63;4.22;;;-0.20;99.90;;;;;;4710108;30;20140;-48
2023/11/26 04:23:23;;;;;;;7.97;4.15;;;-0.20;99.90;;;;;;4711917;30;20053;-45
2023/11/26 04:25:50;;;;;;;8.13;3.70;;;-0.20;99.90;;;;;;4709248;30;21074;-44
2023/11/26 04:28:17;;;;;;;10.38;4.32;;;-0.20;99.90;;;;;;4709713;30;20425;-46
2023/11/26 04:30:44;;;;;;;11.40;3.72;;;-0.30;99.90;;;;;;4693540;30;20720;-44
2023/11/26 04:33:12;;;;;;;7.75;3.80;;;-0.30;99.90;;;;;;4711506;30;20122;-50
2023/11/26 04:35:39;;;;;;;13.40;4.55;;;-0.40;99.90;;;;;;4710942;30;20057;-46
2023/11/26 04:38:07;;;;;;;11.35;4.85;;;-0.40;99.90;;;;;;4710903;30;20131;-46
2023/11/26 04:40:34;;;;;;;9.98;4.80;;;-0.40;99.90;;;;;;4708577;30;20045;-51
2023/11/26 04:43:01;;;;;;;9.00;4.65;;;-0.50;99.90;;;;;;4710748;30;20053;-46
2023/11/26 04:45:28;;;;;;;9.63;5.43;;;-0.50;99.90;;;;;;4711212;30;20048;-44
2023/11/26 04:47:55;;;;;;;10.05;5.20;;;-0.50;99.90;;;;;;4709734;30;20515;-47
2023/11/26 04:50:22;;;;;;;12.77;4.78;;;-0.40;99.90;;;;;;4711146;30;20132;-53
2023/11/26 04:52:51;;;;;;;8.95;4.80;;;-0.40;99.90;;;;;;4708509;30;20064;-46
2023/11/26 04:55:19;;;;;;;11.52;5.40;;;-0.40;99.90;;;;;;4711034;30;20053;-51
2023/11/26 04:57:47;;;;;;;8.32;4.80;;;-0.40;99.90;;;;;;4711647;30;20085;-47
2023/11/26 05:00:20;;;;;;;9.93;4.85;;;-0.40;99.90;;;;;;4710675;30;20052;-48
2023/11/26 05:02:48;;;;;;;10.73;5.53;;;-0.50;99.90;;;;;;4710483;30;20584;-49
2023/11/26 05:05:15;;;;;;;9.40;4.97;;;-0.50;99.90;;;;;;4709583;30;20119;-45
2023/11/26 05:07:42;;;;;;;10.35;5.03;;;-0.60;99.90;;;;;;4711118;30;20041;-54
2023/11/26 05:10:10;;;;;;;12.95;5.70;;;-0.60;99.90;;;;;;4710005;30;20049;-49
2023/11/26 05:12:37;;;;;;;11.48;6.13;;;-0.60;99.90;;;;;;4710824;30;20492;-45
2023/11/26 05:15:05;;;;;;;15.93;6.60;;;-0.70;99.90;;;;;;4699631;30;20061;-48
2023/11/26 05:17:32;;;;;;;10.27;5.65;;;-0.60;99.90;;;;;;4710968;30;20055;-47
2023/11/26 05:19:59;;;;;;;12.85;6.35;;;-0.60;99.90;;;;;;4709344;30;20129;-44
2023/11/26 05:22:26;;;;;;;15.25;7.45;;;-0.70;99.90;;;;;;4711361;30;20041;-45
2023/11/26 05:24:53;;;;;;;14.63;7.40;;;-0.70;99.90;;;;;;4712151;30;20079;-45
2023/11/26 05:27:21;;;;;;;16.92;7.45;;;-0.70;99.90;;;;;;4714448;30;20057;-45
2023/11/26 05:29:48;;;;;;;13.88;7.60;;;-0.70;99.90;;;;;;4714638;30;20072;-46
2023/11/26 05:32:15;;;;;;;16.98;8.45;;;-0.60;99.90;;;;;;4715697;30;20163;-48
2023/11/26 05:34:42;;;;;;;13.30;7.45;;;-0.70;99.90;;;;;;4714518;30;20049;-50
2023/11/26 05:37:11;;;;;;;13.07;7.15;;;-0.80;99.90;;;;;;4713444;30;20060;-46
2023/11/26 05:39:38;;;;;;;15.95;9.02;;;-0.80;99.90;;;;;;4714341;30;20053;-48
2023/11/26 05:42:06;;;;;;;11.80;6.88;;;-0.80;99.90;;;;;;4709443;30;20064;-45
2023/11/26 05:44:33;;;;;;;14.68;8.00;;;-0.80;99.90;;;;;;4713932;30;20056;-43
2023/11/26 05:47:00;;;;;;;17.42;8.05;;;-0.80;99.90;;;;;;4713640;30;20057;-43
2023/11/26 05:49:27;;;;;;;16.75;7.43;;;-0.80;99.90;;;;;;4713843;30;20136;-47
2023/11/26 05:51:58;;;;;;;18.98;8.20;;;-0.80;99.90;;;;;;4713758;30;20136;-47
2023/11/26 05:54:25;;;;;;;16.25;7.45;;;-0.80;99.90;;;;;;4716207;30;20077;-43
2023/11/26 05:56:52;;;;;;;15.68;7.30;;;-0.80;99.90;;;;;;4712843;30;20166;-45
2023/11/26 05:59:19;;;;;;;17.13;7.57;;;-0.80;99.90;;;;;;4713159;30;20045;-41
2023/11/26 06:01:46;;;;;;;14.55;7.57;;;-0.80;99.90;;;;;;4711747;30;20053;-46
2023/11/26 06:04:13;;;;;;;16.20;7.35;;;-0.80;99.90;;;;;;4714572;30;20120;-45
2023/11/26 06:06:40;;;;;;;16.00;6.72;;;-0.80;99.90;;;;;;4715249;30;20060;-47
2023/11/26 06:09:07;;;;;;;17.13;6.95;;;-0.80;99.90;;;;;;4713502;30;20053;-44
2023/11/26 06:11:34;;;;;;;13.95;7.03;;;-0.90;99.90;;;;;;4714076;30;20065;-46
2023/11/26 06:14:01;;;;;;;20.88;8.60;;;-0.90;99.90;;;;;;4710695;30;20056;-40
2023/11/26 06:16:28;;;;;;;18.25;8.45;;;-0.90;99.90;;;;;;4713864;30;20765;-49
2023/11/26 06:18:56;;;;;;;22.80;8.70;;;-0.80;99.90;;;;;;4713113;30;20057;-47
2023/11/26 06:21:23;;;;;;;14.10;8.00;;;-0.80;99.90;;;;;;4712880;30;20053;-45
2023/11/26 06:23:50;;;;;;;17.08;8.45;;;-0.80;99.90;;;;;;4712942;30;20053;-48
2023/11/26 06:26:21;;;;;;;16.00;7.95;;;-0.80;99.90;;;;;;4709647;30;20128;-46
2023/11/26 06:28:48;;;;;;;16.67;9.07;;;-0.80;99.90;;;;;;4713228;30;20053;-48
2023/11/26 06:31:20;;;;;;;14.90;8.82;;;-0.80;99.90;;;;;;4709312;30;20053;-42
2023/11/26 06:33:47;;;;;;;18.45;9.13;;;-0.80;99.90;;;;;;4712831;30;20064;-48
2023/11/26 06:36:23;;;;;;;16.27;8.75;;;-0.80;99.90;;;;;;4712693;30;20053;-43
2023/11/26 06:38:51;;;;;;;16.85;8.55;;;-0.80;99.90;;;;;;4713820;30;20053;-47
2023/11/26 06:41:29;;;;;;;14.90;8.40;;;-0.80;99.90;;;;;;4714222;30;20201;-44
2023/11/26 06:43:56;;;;;;;15.98;8.50;;;-0.80;99.90;;;;;;4712936;30;20107;-45
2023/11/26 06:46:24;;;;;;;16.67;9.50;;;-0.80;99.90;;;;;;4713474;30;20045;-45
2023/11/26 06:48:51;;;;;;;18.50;9.80;;;-0.80;99.90;;;;;;4713980;30;20053;-46
2023/11/26 06:51:19;;;;;;;18.13;9.70;;;-0.80;99.90;;;;;;4713010;30;20118;-45
2023/11/26 06:53:47;;;;;;;19.20;9.68;;;-0.80;99.90;;;;;;4713322;30;20083;-49
2023/11/26 06:56:15;;;;;;;22.40;8.32;;;-0.70;99.90;;;;;;4714639;30;20045;-42
2023/11/26 06:58:44;;;;;;;17.58;9.40;;;-0.70;99.90;;;;;;4712287;30;20424;-43
2023/11/26 07:01:11;;;;;;;21.55;10.15;;;-0.70;99.90;;;;;;4713021;30;20562;-43
2023/11/26 07:03:39;;;;;;;21.98;10.63;;;-0.70;99.90;;;;;;4713673;30;20076;-42
2023/11/26 07:06:11;;;;;;;20.05;9.88;;;-0.70;99.90;;;;;;4708780;30;20511;-48
2023/11/26 07:08:39;;;;;;;19.52;9.80;;;-0.60;99.90;;;;;;4712575;30;20065;-43
2023/11/26 07:11:17;;;;;;;22.17;10.05;;;-0.60;99.90;;;;;;4710252;30;20353;-46
2023/11/26 07:13:47;;;;;;;22.70;9.68;;;-0.60;99.90;;;;;;4714383;30;20072;-49
2023/11/26 07:16:14;;;;;;;20.10;10.32;;;-0.60;99.90;;;;;;4715295;30;20079;-48
2023/11/26 07:18:41;;;;;;;19.10;9.88;;;-0.60;99.90;;;;;;4713018;30;20053;-47
2023/11/26 07:21:08;;;;;;;20.80;9.70;;;-0.60;99.90;;;;;;4712535;30;20149;-47
2023/11/26 07:23:36;;;;;;;24.48;10.85;;;-0.60;99.90;;;;;;4712190;30;20119;-43
2023/11/26 07:26:14;;;;;;;17.85;10.40;;;-0.50;99.90;;;;;;4712762;30;20135;-41
2023/11/26 07:28:42;;;;;;;17.88;9.38;;;-0.50;99.90;;;;;;4712250;30;20064;-49
2023/11/26 07:31:17;;;;;;;16.85;10.15;;;-0.40;99.90;;;;;;4712983;30;20462;-49
2023/11/26 07:33:48;;;;;;;21.85;10.43;;;-0.40;99.90;;;;;;4698216;30;20140;-48
2023/11/26 07:36:19;;;;;;;23.90;10.38;;;-0.30;99.90;;;;;;4712352;30;20552;-45
2023/11/26 07:38:46;;;;;;;13.70;7.75;;;-0.30;99.90;;;;;;4697446;30;20053;-40
2023/11/26 07:41:14;;;;;;;18.27;9.30;;;-0.20;99.90;;;;;;4713381;30;20053;-44
2023/11/26 07:43:42;;;;;;;19.65;9.88;;;-0.20;99.90;;;;;;4713366;30;20080;-50
2023/11/26 07:46:09;;;;;;;16.02;9.07;;;-0.10;99.90;;;;;;4713330;30;20086;-52
2023/11/26 07:48:37;;;;;;;18.40;9.43;;;-0.10;99.90;;;;;;4712809;30;20049;-49
2023/11/26 07:51:04;;;;;;;17.38;9.07;;;0.00;99.90;;;;;;4713482;30;20056;-45
2023/11/26 07:53:32;;;;;;;19.50;9.45;;;0.00;99.90;;;;;;4715368;30;20140;-47
2023/11/26 07:56:00;;;;;;;18.73;8.65;;;0.10;99.90;;;;;;4713448;30;20049;-45
2023/11/26 07:58:31;;;;;;;19.55;8.95;;;0.20;99.90;;;;;;4713409;30;20056;-50
2023/11/26 08:00:59;;;;;;;16.40;9.13;;;0.20;99.90;;;;;;4712723;30;20958;-48
2023/11/26 08:03:26;;;;;;;18.98;9.70;;;0.30;99.90;;;;;;4717440;30;20052;-45
2023/11/26 08:05:54;;;;;;;19.25;8.55;;;0.40;99.90;;;;;;4713800;30;20100;-44
2023/11/26 08:08:22;;;;;;;16.23;8.93;;;0.40;99.90;;;;;;4716781;30;20152;-42
2023/11/26 08:10:50;;;;;;;17.60;8.45;;;0.40;99.90;;;;;;4715771;30;20776;-46
2023/11/26 08:13:22;;;;;;;22.63;10.18;;;0.50;99.90;;;;;;4715634;30;20061;-47
2023/11/26 08:15:50;;;;;;;18.08;7.88;;;0.70;99.90;;;;;;4713194;30;20049;-47
2023/11/26 08:18:18;;;;;;;13.27;8.50;;;0.70;99.90;;;;;;4711439;30;20045;-47
2023/11/26 08:20:46;;;;;;;19.33;9.35;;;0.90;99.90;;;;;;4710907;30;20068;-48
2023/11/26 08:23:13;;;;;;;15.05;7.93;;;1.00;99.90;;;;;;4711691;30;20103;-49
2023/11/26 08:25:41;;;;;;;16.88;8.98;;;1.00;99.90;;;;;;4711842;30;20053;-48
2023/11/26 08:28:08;;;;;;;18.63;8.05;;;1.00;99.90;;;;;;4710198;30;20048;-41
2023/11/26 08:30:42;;;;;;;17.77;8.82;;;1.00;99.90;;;;;;4707572;30;20170;-47
2023/11/26 08:33:14;;;;;;;15.07;7.85;;;1.10;99.90;;;;;;4706994;30;20372;-47
2023/11/26 08:35:41;;;;;;;;;;;1.20;99.90;;;;;;4711837;30;20499;-42
2023/11/26 08:38:10;;;;;;;18.55;8.35;;;1.30;99.90;;;;;;4712105;30;19950;-46
2023/11/26 08:40:40;;;;;;;;;;;1.30;99.90;;;;;;4712527;30;20111;-47
2023/11/26 08:43:13;;;;;;;17.55;7.88;;;1.30;99.90;;;;;;4710949;30;20754;-48
2023/11/26 08:45:40;;;;;;;16.90;8.75;;;1.30;99.90;;;;;;4709508;30;20115;-48
2023/11/26 08:48:10;;;;;;;19.50;8.32;;;1.30;99.90;;;;;;4702971;30;20163;-47
2023/11/26 08:50:39;;;;;;;14.55;8.13;;;1.30;99.90;;;;;;4712048;30;20773;-46
2023/11/26 08:53:09;;;;;;;16.70;8.98;;;1.40;99.90;;;;;;4709754;30;20052;-41
2023/11/26 08:55:36;;;;;;;16.95;8.77;;;1.30;99.90;;;;;;4713147;30;20196;-45
2023/11/26 08:58:03;;;;;;;15.75;8.10;;;1.40;99.90;;;;;;4712480;30;20057;-47
2023/11/26 09:00:30;;;;;;;14.68;7.90;;;1.40;99.90;;;;;;4697237;30;20061;-41
2023/11/26 09:02:57;;;;;;;12.77;8.07;;;1.40;99.90;;;;;;4712172;30;20053;-50
2023/11/26 09:05:24;;;;;;;17.13;9.38;;;1.50;99.90;;;;;;4712341;30;20046;-46
2023/11/26 09:07:52;;;;;;;16.92;9.80;;;1.50;99.90;;;;;;4712294;30;20063;-45
2023/11/26 09:10:19;;;;;;;13.48;8.00;;;1.60;99.90;;;;;;4697540;30;20057;-44
2023/11/26 09:12:46;;;;;;;12.63;7.07;;;1.70;99.90;;;;;;4711237;30;20742;-46
2023/11/26 09:15:13;;;;;;;13.98;7.35;;;1.70;99.90;;;;;;4710265;30;20061;-48
2023/11/26 09:17:41;;;;;;;11.43;6.82;;;1.80;99.90;;;;;;4712905;30;20101;-47
2023/11/26 09:20:11;;;;;;;12.75;7.55;;;1.90;99.90;;;;;;4708730;30;20111;-49
2023/11/26 09:22:39;;;;;;;16.35;7.68;;;1.90;99.90;;;;;;4711444;30;20056;-46
2023/11/26 09:25:13;;;;;;;13.73;7.75;;;1.90;99.90;;;;;;4706409;30;20149;-46
2023/11/26 09:27:41;;;;;;;15.95;7.63;;;2.10;99.90;;;;;;4708268;30;20453;-54
2023/11/26 09:30:08;;;;;;;12.35;7.65;;;2.30;99.90;;;;;;4708228;30;20059;-49
2023/11/26 09:32:37;;;;;;;16.98;9.00;;;2.40;99.90;;;;;;4708638;30;20129;-45
2023/11/26 09:35:05;;;;;;;12.55;6.70;;;2.40;99.90;;;;;;4691232;30;20053;-47
2023/11/26 09:37:32;;;;;;;11.40;6.15;;;2.50;99.90;;;;;;4692262;30;20703;-48
2023/11/26 09:40:00;;;;;;;14.00;6.75;;;2.60;99.90;;;;;;4711046;30;20146;-45
2023/11/26 09:42:26;;;;;;;8.82;6.22;;;2.30;99.90;;;;;;4711456;30;20527;-49
2023/11/26 09:44:54;;;;;;;12.65;6.68;;;2.40;99.90;;;;;;4709392;30;20117;-49
2023/11/26 09:47:20;;;;;;;12.70;6.95;;;2.40;99.90;;;;;;4710974;30;20053;-45
2023/11/26 09:49:49;;;;;;;11.18;5.38;;;2.50;99.90;;;;;;4710332;30;20061;-44
2023/11/26 09:52:17;;;;;;;10.15;6.22;;;2.60;99.90;;;;;;4710790;30;20045;-50
2023/11/26 09:54:44;;;;;;;11.05;6.32;;;2.70;99.90;;;;;;4710703;30;20146;-46
2023/11/26 09:57:11;;;;;;;9.07;5.38;;;2.70;99.90;;;;;;4711653;30;20488;-46
2023/11/26 09:59:38;;;;;;;12.18;6.50;;;2.70;99.90;;;;;;4710647;30;20064;-48
2023/11/26 10:02:10;;;;;;;8.75;5.03;;;2.80;99.90;;;;;;4706523;30;20069;-41
2023/11/26 10:04:46;;;;;;;9.50;5.82;;;2.90;99.90;;;;;;4710890;30;20534;-45
2023/11/26 10:07:14;;;;;;;12.43;5.97;;;3.10;99.90;;;;;;4706581;30;20086;-45
2023/11/26 10:09:42;;;;;;;9.25;5.32;;;3.20;99.90;;;;;;4691840;30;20062;-47
2023/11/26 10:12:09;;;;;;;10.95;5.28;;;3.10;99.90;;;;;;4712049;30;20126;-51
2023/11/26 10:14:36;;;;;;;13.80;5.30;;;3.20;99.90;;;;;;4711159;30;20468;-44
2023/11/26 10:17:11;;;;;;;9.43;5.35;;;3.30;99.90;;;;;;4712485;30;20049;-46
2023/11/26 10:19:39;;;;;;;15.85;6.20;;;3.50;99.90;;;;;;4710274;30;20137;-45
2023/11/26 10:22:06;;;;;;;11.20;5.82;;;3.60;99.90;;;;;;4711181;30;20059;-49
2023/11/26 10:24:34;;;;;;;11.68;6.50;;;3.60;99.90;;;;;;4712820;30;20055;-45
2023/11/26 10:27:12;;;;;;;12.07;6.88;;;3.70;99.90;;;;;;4711863;30;20446;-47
2023/11/26 10:29:42;;;;;;;10.35;5.70;;;3.80;99.90;;;;;;4712906;30;20610;-48
2023/11/26 10:32:12;;;;;;;10.90;6.07;;;4.00;99.90;;;;;;4712908;30;20140;-50
2023/11/26 10:34:41;;;;;;;11.02;5.32;;;4.10;99.90;;;;;;4712887;30;20049;-51
2023/11/26 10:37:20;;;;;;;9.48;5.47;;;4.10;99.90;;;;;;4713862;30;20080;-43
2023/11/26 10:39:51;;;;;;;12.25;5.07;;;4.20;99.90;;;;;;4712918;30;20118;-47
2023/11/26 10:42:19;;;;;;;10.40;5.55;;;4.40;99.90;;;;;;4710933;30;20051;-48
2023/11/26 10:44:51;;;;;;;7.60;4.68;;;4.40;99.90;;;;;;4712989;30;20067;-49
2023/11/26 10:47:26;;;;;;;6.30;4.45;;;4.20;99.90;;;;;;4711871;30;20044;-50
2023/11/26 10:49:58;;;;;;;9.27;5.13;;;4.40;99.90;;;;;;4712521;30;20445;-44
2023/11/26 10:52:28;;;;;;;8.40;4.72;;;4.50;99.90;;;;;;4695481;30;20068;-46
2023/11/26 10:55:10;;;;;;;8.43;4.82;;;4.50;99.90;;;;;;4711851;30;20061;-50
2023/11/26 10:57:41;;;;;;;7.97;4.72;;;4.60;99.90;;;;;;4712925;30;20057;-46
2023/11/26 11:00:13;;;;;;;8.60;4.90;;;4.60;99.90;;;;;;4712210;30;20049;-47
2023/11/26 11:02:45;;;;;;;7.03;4.72;;;4.90;99.90;;;;;;4712921;30;20053;-50
2023/11/26 11:05:13;;;;;;;7.35;4.43;;;4.80;99.90;;;;;;4710379;30;20722;-43
2023/11/26 11:07:40;;;;;;;9.95;5.25;;;4.80;99.90;;;;;;4705509;30;20611;-48
2023/11/26 11:10:17;;;;;;;9.77;4.43;;;4.70;99.90;;;;;;4706310;30;20049;-51
2023/11/26 11:12:50;;;;;;;12.93;4.93;;;4.40;99.90;;;;;;4709606;30;20477;-53
2023/11/26 11:15:24;;;;;;;6.90;4.13;;;4.50;99.90;;;;;;4710824;30;20107;-46
2023/11/26 11:17:51;;;;;;;8.50;4.90;;;4.60;99.90;;;;;;4705033;30;20060;-46
2023/11/26 11:20:19;;;;;;;8.02;4.32;;;4.90;99.90;;;;;;4709965;30;20606;-44
2023/11/26 11:22:46;;;;;;;18.33;8.95;;;5.10;99.90;;;;;;4711894;30;20053;-46
2023/11/26 11:25:15;;;;;;;10.63;4.88;;;5.50;99.90;;;;;;4710596;30;20152;-51
2023/11/26 11:27:54;;;;;;;6.18;4.03;;;5.50;99.90;;;;;;4711548;30;20057;-46
2023/11/26 11:30:39;;;;;;;9.52;4.30;;;5.40;99.90;;;;;;4710994;30;20127;-44
2023/11/26 11:33:10;;;;;;;10.45;4.15;;;5.40;99.90;;;;;;4711572;30;20081;-46
2023/11/26 11:35:45;;;;;;;7.35;4.57;;;5.30;99.90;;;;;;4713349;30;20560;-50
2023/11/26 11:38:15;;;;;;;8.07;4.22;;;5.20;99.90;;;;;;4709964;30;20457;-46
2023/11/26 11:41:08;;;;;;;5.78;3.83;;;4.90;99.90;;;;;;4709667;30;20085;-49
2023/11/26 11:43:36;;;;;;;6.45;4.25;;;4.80;99.90;;;;;;4710388;30;20618;-50
2023/11/26 11:46:28;;;;;;;12.48;4.85;;;5.00;99.90;;;;;;4712267;30;20067;-47
2023/11/26 11:48:57;;;;;;;9.93;4.70;;;5.10;99.90;;;;;;4710824;30;20055;-44
2023/11/26 11:51:40;;;;;;;9.70;4.95;;;5.20;99.90;;;;;;4712592;30;20124;-46
2023/11/26 11:54:11;;;;;;;11.43;5.97;;;5.20;99.90;;;;;;4712139;30;20049;-47
2023/11/26 11:56:39;;;;;;;7.82;4.85;;;5.40;99.90;;;;;;4696669;30;20045;-46
2023/11/26 11:59:07;;;;;;;8.27;4.85;;;5.40;99.90;;;;;;4712072;30;20081;-50
2023/11/26 12:01:35;;;;;;;8.32;5.30;;;5.40;99.90;;;;;;4711645;30;20057;-47
2023/11/26 12:04:03;;;;;;;7.32;5.28;;;5.40;99.90;;;;;;4711910;30;20060;-50
2023/11/26 12:06:31;;;;;;;7.18;4.55;;;5.50;99.90;;;;;;4710450;30;20175;-44
2023/11/26 12:09:11;;;;;;;7.38;4.30;;;5.70;99.90;;;;;;4711621;30;20115;-47
2023/11/26 12:11:47;;;;;;;9.48;5.68;;;5.80;99.90;;;;;;4711915;30;20113;-48
2023/11/26 12:14:24;;;;;;;11.95;6.30;;;5.90;99.90;;;;;;4689921;30;20045;-46
2023/11/26 12:16:51;;;;;;;9.55;6.05;;;6.00;99.90;;;;;;4709307;30;20057;-52
2023/11/26 12:19:18;;;;;;;14.13;5.80;;;6.00;99.90;;;;;;4710824;30;20153;-47
2023/11/26 12:21:46;;;;;;;10.82;6.38;;;5.70;99.90;;;;;;4710392;30;20535;-51
2023/11/26 12:24:21;;;;;;;8.60;4.90;;;5.40;99.90;;;;;;4710372;30;20049;-46
2023/11/26 12:26:49;;;;;;;9.85;5.50;;;5.30;99.90;;;;;;4711693;30;20063;-49
2023/11/26 12:29:26;;;;;;;10.55;5.72;;;5.10;99.90;;;;;;4711311;30;20151;-40
2023/11/26 12:31:58;;;;;;;10.00;5.68;;;5.10;99.90;;;;;;4710701;30;20072;-45
2023/11/26 12:34:26;;;;;;;10.93;6.07;;;5.10;99.90;;;;;;4710707;30;20467;-50
2023/11/26 12:36:53;;;;;;;11.88;5.68;;;4.90;99.90;;;;;;4708696;30;20053;-44
2023/11/26 12:39:22;;;;;;;10.63;6.60;;;4.80;99.90;;;;;;4710174;30;20057;-46
2023/11/26 12:41:50;;;;;;;11.23;6.90;;;4.80;99.90;;;;;;4710203;30;20420;-48
2023/11/26 12:44:19;;;;;;;10.15;6.30;;;4.80;99.90;;;;;;4706105;30;20088;-45
2023/11/26 12:46:47;;;;;;;11.68;7.28;;;4.70;99.90;;;;;;4709768;30;20079;-41
2023/11/26 12:49:21;;;;;;;11.68;6.18;;;4.60;99.90;;;;;;4710212;30;20143;-49
2023/11/26 12:51:53;;;;;;;12.40;6.60;;;4.50;99.90;;;;;;4710764;30;20079;-47
2023/11/26 12:54:23;;;;;;;10.90;6.00;;;4.50;99.90;;;;;;4712701;30;20345;-48
2023/11/26 12:56:55;;;;;;;10.52;6.72;;;4.50;99.90;;;;;;4712087;30;20119;-46
2023/11/26 12:59:22;;;;;;;10.55;6.78;;;4.60;99.90;;;;;;4712189;30;20049;-52